createdAt,value
2023-02-19T00:00:35.441Z,10.02
2023-02-19T00:03:38.645Z,11.52
2023-02-19T00:06:42.330Z,9.80
2023-02-19T00:09:44.815Z,9.48
2023-02-19T00:12:47.242Z,10.05
2023-02-19T00:15:49.832Z,7.55
2023-02-19T00:18:52.902Z,9.85
2023-02-19T00:21:55.370Z,8.00
2023-02-19T00:24:57.816Z,6.25
2023-02-19T00:28:00.163Z,5.50
2023-02-19T00:31:35.835Z,9.15
2023-02-19T00:34:38.387Z,8.77
2023-02-19T00:37:40.886Z,5.45
2023-02-19T00:40:43.340Z,12.55
2023-02-19T00:44:07.076Z,6.28
2023-02-19T00:47:09.623Z,4.63
2023-02-19T00:50:14.496Z,9.63
2023-02-19T00:56:21.373Z,10.27
2023-02-19T00:59:23.710Z,11.38
2023-02-19T01:02:26.932Z,8.52
2023-02-19T01:05:29.353Z,7.60
2023-02-19T01:08:32.818Z,8.63
2023-02-19T01:11:36.559Z,9.85
2023-02-19T01:14:39.576Z,7.87
2023-02-19T01:17:41.911Z,9.73
2023-02-19T01:20:45.438Z,7.97
2023-02-19T01:23:48.812Z,12.55
2023-02-19T01:26:51.241Z,5.93
2023-02-19T01:29:53.845Z,8.32
2023-02-19T01:32:56.166Z,11.15
2023-02-19T01:35:58.613Z,10.98
2023-02-19T01:39:05.178Z,12.45
2023-02-19T01:42:14.863Z,11.00
2023-02-19T01:45:24.952Z,11.68
2023-02-19T01:48:35.428Z,12.90
2023-02-19T01:51:41.980Z,9.15
2023-02-19T01:54:45.040Z,8.10
2023-02-19T01:57:49.466Z,12.57
2023-02-19T02:00:52.864Z,8.98
2023-02-19T02:03:55.389Z,10.17
2023-02-19T02:06:58.336Z,6.93
2023-02-19T02:10:19.404Z,16.40
2023-02-19T02:13:22.036Z,8.40
2023-02-19T02:16:26.191Z,10.35
2023-02-19T02:19:33.176Z,14.07
2023-02-19T02:23:10.311Z,6.75
2023-02-19T02:26:27.642Z,6.07
2023-02-19T02:29:30.014Z,11.02
2023-02-19T02:32:53.564Z,9.07
2023-02-19T02:36:24.865Z,9.65
2023-02-19T02:39:28.694Z,6.43
2023-02-19T02:42:31.156Z,6.93
2023-02-19T02:45:44.653Z,6.82
2023-02-19T02:48:58.775Z,6.77
2023-02-19T02:52:21.977Z,7.10
2023-02-19T02:55:25.884Z,7.38
2023-02-19T02:58:29.018Z,9.30
2023-02-19T03:01:55.886Z,8.90
2023-02-19T03:05:31.098Z,7.57
2023-02-19T03:08:44.455Z,11.23
2023-02-19T03:12:08.934Z,7.77
2023-02-19T03:18:52.632Z,7.47
2023-02-19T03:22:01.567Z,11.90
2023-02-19T03:25:32.406Z,6.80
2023-02-19T03:28:57.619Z,14.88
2023-02-19T03:32:04.691Z,9.60
2023-02-19T03:35:11.050Z,11.68
2023-02-19T03:38:25.738Z,7.55
2023-02-19T03:44:53.231Z,10.70
2023-02-19T03:48:19.070Z,7.15
2023-02-19T03:51:39.291Z,7.53
2023-02-19T03:55:06.381Z,6.82
2023-02-19T03:58:23.062Z,7.93
2023-02-19T04:01:43.128Z,8.10
2023-02-19T04:04:51.030Z,13.00
2023-02-19T04:07:57.611Z,10.55
2023-02-19T04:11:07.018Z,12.43
2023-02-19T04:14:16.900Z,9.13
2023-02-19T04:17:38.247Z,8.40
2023-02-19T04:20:43.748Z,54.50
2023-02-19T04:23:46.467Z,44.58
2023-02-19T04:26:48.994Z,8.10
2023-02-19T04:29:51.547Z,9.68
2023-02-19T04:32:54.024Z,7.10
2023-02-19T04:35:56.484Z,8.02
2023-02-19T04:38:59.073Z,8.23
2023-02-19T04:42:01.437Z,9.77
2023-02-19T04:45:04.002Z,14.23
2023-02-19T04:48:06.543Z,8.85
2023-02-19T04:51:09.748Z,8.82
2023-02-19T04:54:12.250Z,10.07
2023-02-19T04:57:14.555Z,9.85
2023-02-19T05:00:16.978Z,11.70
2023-02-19T05:03:19.518Z,14.55
2023-02-19T05:06:22.015Z,12.77
2023-02-19T05:09:24.509Z,6.60
2023-02-19T05:12:27.479Z,9.88
2023-02-19T05:15:29.922Z,12.33
2023-02-19T05:18:33.419Z,15.15
2023-02-19T05:21:35.831Z,14.68
2023-02-19T05:24:38.148Z,17.98
2023-02-19T05:27:40.458Z,14.90
2023-02-19T05:30:43.192Z,20.58
2023-02-19T05:33:50.282Z,11.93
2023-02-19T05:36:52.618Z,12.40
2023-02-19T05:39:55.017Z,14.48
2023-02-19T05:42:57.351Z,13.00
2023-02-19T05:45:59.887Z,12.80
2023-02-19T05:49:03.448Z,11.50
2023-02-19T05:52:05.930Z,16.42
2023-02-19T05:55:08.571Z,15.35
2023-02-19T05:58:10.963Z,11.23
2023-02-19T06:01:24.605Z,13.88
2023-02-19T06:04:27.055Z,13.75
2023-02-19T06:07:29.568Z,15.35
2023-02-19T06:10:32.170Z,13.00
2023-02-19T06:13:35.045Z,13.77
2023-02-19T06:16:37.438Z,17.23
2023-02-19T06:19:39.930Z,11.48
2023-02-19T06:22:42.228Z,18.63
2023-02-19T06:25:44.530Z,13.13
2023-02-19T06:28:48.588Z,12.13
2023-02-19T06:34:53.202Z,12.95
2023-02-19T06:37:55.696Z,10.13
2023-02-19T06:41:02.322Z,9.13
2023-02-19T06:44:04.735Z,14.00
2023-02-19T06:47:07.176Z,12.85
2023-02-19T06:50:09.605Z,13.85
2023-02-19T06:53:11.978Z,12.50
2023-02-19T06:56:26.641Z,13.13
2023-02-19T06:59:28.968Z,13.75
2023-02-19T07:02:31.253Z,16.80
2023-02-19T07:05:33.804Z,11.90
2023-02-19T07:08:36.144Z,14.20
2023-02-19T07:11:40.085Z,18.42
2023-02-19T07:14:42.618Z,16.20
2023-02-19T07:17:45.071Z,9.65
2023-02-19T07:20:47.897Z,14.95
2023-02-19T07:23:50.634Z,11.02
2023-02-19T07:26:53.178Z,13.82
2023-02-19T07:29:55.544Z,16.27
2023-02-19T07:32:58.187Z,13.20
2023-02-19T07:36:00.600Z,13.45
2023-02-19T07:39:02.980Z,10.90
2023-02-19T07:42:05.834Z,14.70
2023-02-19T07:45:08.473Z,11.45
2023-02-19T07:48:10.789Z,20.00
2023-02-19T07:51:18.981Z,14.55
2023-02-19T07:54:21.378Z,13.25
2023-02-19T07:57:23.813Z,21.98
2023-02-19T08:00:26.792Z,15.25
2023-02-19T08:03:29.208Z,18.30
2023-02-19T08:06:31.611Z,45.42
2023-02-19T08:09:34.435Z,8.23
2023-02-19T08:12:55.453Z,11.40
2023-02-19T08:16:18.249Z,14.43
2023-02-19T08:19:22.791Z,14.90
2023-02-19T08:22:25.131Z,13.25
2023-02-19T08:25:27.459Z,12.48
2023-02-19T08:28:30.715Z,16.05
2023-02-19T08:31:34.269Z,8.25
2023-02-19T08:34:37.185Z,16.13
2023-02-19T08:37:39.778Z,14.10
2023-02-19T08:40:42.629Z,12.77
2023-02-19T08:43:44.966Z,6.43
2023-02-19T08:46:47.422Z,14.35
2023-02-19T08:49:53.469Z,12.32
2023-02-19T08:52:57.537Z,12.43
2023-02-19T08:56:00.846Z,13.32
2023-02-19T08:59:03.578Z,15.67
2023-02-19T09:02:06.195Z,14.02
2023-02-19T09:05:09.400Z,11.27
2023-02-19T09:08:12.116Z,14.87
2023-02-19T09:11:15.682Z,11.23
2023-02-19T09:14:18.785Z,5.22
2023-02-19T09:17:21.511Z,10.05
2023-02-19T09:20:24.391Z,6.78
2023-02-19T09:23:27.071Z,9.00
2023-02-19T09:26:29.662Z,11.93
2023-02-19T09:29:34.632Z,6.78
2023-02-19T09:32:37.086Z,11.13
2023-02-19T09:35:40.717Z,9.63
2023-02-19T09:38:43.623Z,9.07
2023-02-19T09:42:00.064Z,9.23
2023-02-19T09:45:02.850Z,7.25
2023-02-19T09:48:06.419Z,12.20
2023-02-19T09:51:10.480Z,13.80
2023-02-19T09:57:42.372Z,5.78
2023-02-19T10:00:49.499Z,12.25
2023-02-19T10:03:52.241Z,8.55
2023-02-19T10:06:59.139Z,5.22
2023-02-19T10:10:17.961Z,7.00
2023-02-19T10:13:23.417Z,8.07
2023-02-19T10:16:27.676Z,9.32
2023-02-19T10:19:30.017Z,6.88
2023-02-19T10:22:34.121Z,7.05
2023-02-19T10:28:39.146Z,5.78
2023-02-19T10:31:41.893Z,5.05
2023-02-19T10:34:44.813Z,5.13
2023-02-19T10:37:49.416Z,7.30
2023-02-19T10:40:59.102Z,5.47
2023-02-19T10:44:19.584Z,5.80
2023-02-19T10:47:24.706Z,4.57
2023-02-19T10:50:32.172Z,6.90
2023-02-19T10:54:16.027Z,4.15
2023-02-19T10:57:30.587Z,3.72
2023-02-19T11:03:35.244Z,5.00
2023-02-19T11:06:37.657Z,6.20
2023-02-19T11:09:45.590Z,3.97
2023-02-19T11:12:50.196Z,3.17
2023-02-19T11:15:54.080Z,4.00
2023-02-19T11:18:57.457Z,3.03
2023-02-19T11:22:00.568Z,7.25
2023-02-19T11:25:25.880Z,4.53
2023-02-19T11:28:36.833Z,3.60
2023-02-19T11:31:39.428Z,5.05
2023-02-19T11:34:42.128Z,4.50
2023-02-19T11:37:59.351Z,4.40
2023-02-19T11:41:20.333Z,4.38
2023-02-19T11:44:54.286Z,2.05
2023-02-19T11:48:19.489Z,1.73
2023-02-19T11:51:52.740Z,3.08
2023-02-19T11:55:02.238Z,2.20
2023-02-19T11:58:33.968Z,2.53
2023-02-19T12:01:42.161Z,2.95
2023-02-19T12:05:27.074Z,3.35
2023-02-19T12:08:29.678Z,4.10
2023-02-19T12:11:44.990Z,3.67
2023-02-19T12:15:00.495Z,1.73
2023-02-19T12:18:32.234Z,6.38
2023-02-19T12:21:55.844Z,6.20
2023-02-19T12:25:17.015Z,3.70
2023-02-19T12:28:38.471Z,1.23
2023-02-19T12:31:56.749Z,3.03
2023-02-19T12:35:16.811Z,1.67
2023-02-19T12:38:33.674Z,4.22
2023-02-19T12:41:45.659Z,3.45
2023-02-19T12:44:53.896Z,3.08
2023-02-19T12:48:17.828Z,3.47
2023-02-19T12:51:37.215Z,3.28
2023-02-19T12:54:42.125Z,4.30
2023-02-19T12:57:44.575Z,5.13
2023-02-19T13:00:51.278Z,4.05
2023-02-19T13:04:15.322Z,4.05
2023-02-19T13:07:32.534Z,3.47
2023-02-19T13:10:41.834Z,2.30
2023-02-19T13:13:48.953Z,3.20
2023-02-19T13:16:55.291Z,3.92
2023-02-19T13:20:05.623Z,2.83
2023-02-19T13:23:27.936Z,1.40
2023-02-19T13:27:08.714Z,2.75
2023-02-19T13:30:52.522Z,2.47
2023-02-19T13:34:05.976Z,2.08
2023-02-19T13:37:09.200Z,2.47
2023-02-19T13:40:28.442Z,1.80
2023-02-19T13:43:42.999Z,3.55
2023-02-19T13:46:46.524Z,2.60
2023-02-19T13:49:52.325Z,3.03
2023-02-19T13:52:56.410Z,1.98
2023-02-19T13:55:59.021Z,2.30
2023-02-19T13:59:24.405Z,3.30
2023-02-19T14:02:33.295Z,1.98
2023-02-19T14:05:58.543Z,2.38
2023-02-19T14:09:01.080Z,3.25
2023-02-19T14:12:06.364Z,2.05
2023-02-19T14:15:44.436Z,1.58
2023-02-19T14:18:47.402Z,1.80
2023-02-19T14:21:49.876Z,2.30
2023-02-19T14:24:54.319Z,1.65
2023-02-19T14:28:18.022Z,2.83
2023-02-19T14:31:33.430Z,3.17
2023-02-19T14:34:36.240Z,4.28
2023-02-19T14:37:38.650Z,2.83
2023-02-19T14:40:43.685Z,2.22
2023-02-19T14:43:48.138Z,2.75
2023-02-19T14:46:55.015Z,3.08
2023-02-19T14:50:14.294Z,2.80
2023-02-19T14:53:17.587Z,5.18
2023-02-19T14:56:23.973Z,1.83
2023-02-19T14:59:30.956Z,4.13
2023-02-19T15:02:33.605Z,2.53
2023-02-19T15:05:37.575Z,2.67
2023-02-19T15:08:45.152Z,1.70
2023-02-19T15:11:47.747Z,2.13
2023-02-19T15:14:52.435Z,2.42
2023-02-19T15:17:55.284Z,1.98
2023-02-19T15:21:03.417Z,2.35
2023-02-19T15:24:06.595Z,1.48
2023-02-19T15:27:20.122Z,2.42
2023-02-19T15:30:29.619Z,3.40
2023-02-19T15:33:32.109Z,3.72
2023-02-19T15:36:35.115Z,3.08
2023-02-19T15:39:48.212Z,2.33
2023-02-19T15:42:50.678Z,2.55
2023-02-19T15:45:57.706Z,2.03
2023-02-19T15:49:10.006Z,3.72
2023-02-19T15:52:20.134Z,6.60
2023-02-19T15:55:32.360Z,5.07
2023-02-19T15:58:44.489Z,4.63
2023-02-19T16:01:47.180Z,4.28
2023-02-19T16:04:49.941Z,6.28
2023-02-19T16:08:18.425Z,3.80
2023-02-19T16:11:37.705Z,4.93
2023-02-19T16:14:40.230Z,14.05
2023-02-19T16:17:44.377Z,6.00
2023-02-19T16:20:48.053Z,5.03
2023-02-19T16:23:54.943Z,2.75
2023-02-19T16:26:58.225Z,4.50
2023-02-19T16:30:08.210Z,2.38
2023-02-19T16:33:37.237Z,4.15
2023-02-19T16:36:42.628Z,4.50
2023-02-19T16:39:44.871Z,5.90
2023-02-19T16:42:50.031Z,4.35
2023-02-19T16:45:52.927Z,3.70
2023-02-19T16:48:55.541Z,4.50
2023-02-19T16:52:04.290Z,5.38
2023-02-19T16:55:14.254Z,1.98
2023-02-19T16:58:16.919Z,2.90
2023-02-19T17:01:19.536Z,4.82
2023-02-19T17:04:22.362Z,3.17
2023-02-19T17:07:28.176Z,4.32
2023-02-19T17:10:32.085Z,5.80
2023-02-19T17:13:35.214Z,5.35
2023-02-19T17:16:42.090Z,4.90
2023-02-19T17:19:44.456Z,4.97
2023-02-19T17:22:46.919Z,5.05
2023-02-19T17:25:49.308Z,2.97
2023-02-19T17:28:52.033Z,3.92
2023-02-19T17:31:55.352Z,6.03
2023-02-19T17:35:02.190Z,4.38
2023-02-19T17:38:11.551Z,3.95
2023-02-19T17:41:15.822Z,4.38
2023-02-19T17:44:22.206Z,2.00
2023-02-19T17:47:27.363Z,3.28
2023-02-19T17:50:33.917Z,3.00
2023-02-19T17:53:38.595Z,4.22
2023-02-19T17:56:44.690Z,3.67
2023-02-19T17:59:51.553Z,3.00
2023-02-19T18:02:55.979Z,2.20
2023-02-19T18:05:58.785Z,6.03
2023-02-19T18:09:01.038Z,5.38
2023-02-19T18:12:03.459Z,8.52
2023-02-19T18:15:07.619Z,5.65
2023-02-19T18:18:09.947Z,12.60
2023-02-19T18:21:15.132Z,5.82
2023-02-19T18:24:17.484Z,6.82
2023-02-19T18:27:20.726Z,5.78
2023-02-19T18:30:23.972Z,3.28
2023-02-19T18:33:26.559Z,8.07
2023-02-19T18:36:29.010Z,8.43
2023-02-19T18:39:31.387Z,5.22
2023-02-19T18:42:33.751Z,3.72
2023-02-19T18:45:37.424Z,8.43
2023-02-19T18:48:39.784Z,9.07
2023-02-19T18:51:43.550Z,7.15
2023-02-19T18:54:45.925Z,8.38
2023-02-19T18:57:48.838Z,8.35
2023-02-19T19:00:51.216Z,8.75
2023-02-19T19:03:53.524Z,12.02
2023-02-19T19:06:56.008Z,12.05
2023-02-19T19:09:58.425Z,16.02
2023-02-19T19:13:00.766Z,9.93
2023-02-19T19:16:03.240Z,10.88
2023-02-19T19:19:05.705Z,8.93
2023-02-19T19:22:08.169Z,9.60
2023-02-19T19:25:10.795Z,7.28
2023-02-19T19:28:13.068Z,9.25
2023-02-19T19:31:17.017Z,13.90
2023-02-19T19:37:21.772Z,9.68
2023-02-19T19:40:24.308Z,7.57
2023-02-19T19:43:28.175Z,11.60
2023-02-19T19:49:33.562Z,12.35
2023-02-19T19:52:36.026Z,7.47
2023-02-19T19:55:38.475Z,6.93
2023-02-19T19:58:40.891Z,9.88
2023-02-19T20:01:50.168Z,8.07
2023-02-19T20:04:52.771Z,6.72
2023-02-19T20:07:55.562Z,10.55
2023-02-19T20:10:57.944Z,8.85
2023-02-19T20:14:00.506Z,11.40
2023-02-19T20:17:03.320Z,15.25
2023-02-19T20:20:06.969Z,8.13
2023-02-19T20:23:09.705Z,4.43
2023-02-19T20:26:12.567Z,20.60
2023-02-19T20:29:14.916Z,7.82
2023-02-19T20:32:20.961Z,9.52
2023-02-19T20:35:26.487Z,12.00
2023-02-19T20:38:28.937Z,9.88
2023-02-19T20:41:31.397Z,12.18
2023-02-19T20:44:34.264Z,14.10
2023-02-19T20:47:37.789Z,9.70
2023-02-19T20:50:40.163Z,10.48
2023-02-19T20:53:43.474Z,6.70
2023-02-19T20:56:50.284Z,9.90
2023-02-19T20:59:53.169Z,9.80
2023-02-19T21:02:55.537Z,9.50
2023-02-19T21:05:57.826Z,9.60
2023-02-19T21:09:00.207Z,10.15
2023-02-19T21:12:02.533Z,10.48
2023-02-19T21:15:05.978Z,7.85
2023-02-19T21:18:08.747Z,7.68
2023-02-19T21:21:11.620Z,6.63
2023-02-19T21:24:15.338Z,9.43
2023-02-19T21:27:18.578Z,10.00
2023-02-19T21:30:21.336Z,11.75
2023-02-19T21:33:23.930Z,9.65
2023-02-19T21:36:26.453Z,9.25
2023-02-19T21:39:30.596Z,10.20
2023-02-19T21:42:33.136Z,11.38
2023-02-19T21:45:35.593Z,7.93
2023-02-19T21:48:37.950Z,9.93
2023-02-19T21:51:42.227Z,8.45
2023-02-19T21:54:44.564Z,7.45
2023-02-19T21:57:46.910Z,9.63
2023-02-19T22:00:49.275Z,12.52
2023-02-19T22:03:52.030Z,28.63
2023-02-19T22:06:57.742Z,9.60
2023-02-19T22:10:00.120Z,6.35
2023-02-19T22:13:02.462Z,8.95
2023-02-19T22:16:04.879Z,8.52
2023-02-19T22:19:07.263Z,9.05
2023-02-19T22:22:09.631Z,10.57
2023-02-19T22:25:12.143Z,8.02
2023-02-19T22:28:14.610Z,11.13
2023-02-19T22:31:18.475Z,10.00
2023-02-19T22:34:21.053Z,9.55
2023-02-19T22:37:23.510Z,8.43
2023-02-19T22:40:25.823Z,7.95
2023-02-19T22:43:28.087Z,10.00
2023-02-19T22:46:31.371Z,10.77
2023-02-19T22:49:33.758Z,6.38
2023-02-19T22:52:36.172Z,6.85
2023-02-19T22:55:38.672Z,7.05
2023-02-19T22:58:41.420Z,6.78
2023-02-19T23:01:43.787Z,5.93
2023-02-19T23:04:46.145Z,9.25
2023-02-19T23:07:48.454Z,7.78
2023-02-19T23:10:51.240Z,8.43
2023-02-19T23:13:53.707Z,7.65
2023-02-19T23:16:56.083Z,5.75
2023-02-19T23:19:58.425Z,6.20
2023-02-19T23:23:00.952Z,6.05
2023-02-19T23:26:04.743Z,5.75
2023-02-19T23:29:06.992Z,6.65
2023-02-19T23:32:09.471Z,10.18
2023-02-19T23:35:11.791Z,6.30
2023-02-19T23:38:14.197Z,3.47
2023-02-19T23:41:17.635Z,6.50
2023-02-19T23:44:21.194Z,4.15
2023-02-19T23:47:25.934Z,7.05
2023-02-19T23:50:28.636Z,10.35
2023-02-19T23:53:31.042Z,7.65
2023-02-19T23:56:33.928Z,5.32
2023-02-19T23:59:36.294Z,3.28
